Waynesfield, Ohio
Current Conditions -  °F | °C
As of 1:53 PM on Friday 24 Oct 2014 (Local Time) from KAOH Reporting Station
Clear Clear  
Wind Chill: 62°   Ceiling: Unl
Heat Index: 62°   Visibility: 10mi
Dew Point: 43°   Wind: 6mph
Humidity: 50%   Direction: 280°W
Pressure: 30.05"   Gusts: NA
Location:  40.6°N, 83.98°W
Report Text: KAOH 241753Z AUTO 28005KT 10SM CLR 17/06 A3005 RMK AO2 SLP179 T01670061 10167 20039 58016
Loading
Personal Weather Stations






























Interactive Weather Map
Tropical Storm Tracking
New forecast layout! Learn more

10-Day Weather Forecast

Advertisements
Track Severe Weather on mobile